createdAt,value
2018-05-15T00:00:51.820Z,4.00
2018-05-15T00:01:51.983Z,4.00
2018-05-15T00:02:52.152Z,4.00
2018-05-15T00:03:52.316Z,4.00
2018-05-15T00:06:34.866Z,4.00
2018-05-15T00:07:35.043Z,4.00
2018-05-15T00:08:35.205Z,4.00
2018-05-15T00:09:35.370Z,4.00
2018-05-15T00:10:35.541Z,4.00
2018-05-15T00:11:35.707Z,4.00
2018-05-15T00:12:35.877Z,4.00
2018-05-15T00:13:36.041Z,4.00
2018-05-15T00:14:36.204Z,4.00
2018-05-15T00:15:36.369Z,4.00
2018-05-15T00:18:18.953Z,4.00
2018-05-15T00:19:19.110Z,4.00
2018-05-15T00:20:19.279Z,4.00
2018-05-15T00:21:19.446Z,4.00
2018-05-15T00:22:19.615Z,4.00
2018-05-15T00:23:19.776Z,4.00
2018-05-15T00:24:19.942Z,4.00
2018-05-15T00:25:20.108Z,4.00
2018-05-15T00:26:20.273Z,4.00
2018-05-15T00:27:20.436Z,4.00
2018-05-15T00:28:20.605Z,4.00
2018-05-15T00:29:20.940Z,4.00
2018-05-15T00:30:21.014Z,4.00
2018-05-15T00:31:21.092Z,4.00
2018-05-15T00:32:29.199Z,4.00
2018-05-15T00:33:21.360Z,4.00
2018-05-15T00:34:21.515Z,4.00
2018-05-15T00:35:21.679Z,4.00
2018-05-15T00:36:21.848Z,4.00
2018-05-15T00:37:22.011Z,4.00
2018-05-15T00:38:22.181Z,4.00
2018-05-15T00:39:22.349Z,4.00
2018-05-15T00:40:22.517Z,4.00
2018-05-15T00:41:22.686Z,4.00
2018-05-15T00:42:22.867Z,4.00
2018-05-15T00:44:56.400Z,4.00
2018-05-15T00:45:56.557Z,4.00
2018-05-15T00:46:56.722Z,4.00
2018-05-15T00:47:56.904Z,4.00
2018-05-15T00:48:57.050Z,4.00
2018-05-15T00:49:57.208Z,4.00
2018-05-15T00:50:57.372Z,4.00
2018-05-15T00:51:57.541Z,4.00
2018-05-15T00:52:57.715Z,4.00
2018-05-15T00:53:57.883Z,4.00
2018-05-15T00:54:58.045Z,4.00
2018-05-15T00:55:58.211Z,4.00
2018-05-15T00:56:58.376Z,4.00
2018-05-15T00:57:58.533Z,4.00
2018-05-15T00:58:58.707Z,4.00
2018-05-15T01:01:31.013Z,4.00
2018-05-15T01:02:31.174Z,4.00
2018-05-15T01:03:31.341Z,4.00
2018-05-15T01:04:31.522Z,4.00
2018-05-15T01:05:32.513Z,4.00
2018-05-15T01:06:31.807Z,4.00
2018-05-15T01:07:32.519Z,4.00
2018-05-15T01:08:33.013Z,4.00
2018-05-15T01:09:33.011Z,4.00
2018-05-15T01:10:32.428Z,4.00
2018-05-15T01:11:32.595Z,4.00
2018-05-15T01:12:32.765Z,4.00
2018-05-15T01:13:32.930Z,4.00
2018-05-15T01:14:33.094Z,4.00
2018-05-15T01:15:33.258Z,4.00
2018-05-15T01:18:05.545Z,4.00
2018-05-15T01:19:05.706Z,4.00
2018-05-15T01:20:05.872Z,4.00
2018-05-15T01:21:06.035Z,4.00
2018-05-15T01:22:06.201Z,4.00
2018-05-15T01:23:06.369Z,4.00
2018-05-15T01:24:06.532Z,4.00
2018-05-15T01:25:06.694Z,4.00
2018-05-15T01:26:06.895Z,4.00
2018-05-15T01:27:07.053Z,4.00
2018-05-15T01:28:07.218Z,4.00
2018-05-15T01:29:07.384Z,4.00
2018-05-15T01:30:07.550Z,4.00
2018-05-15T01:31:07.720Z,4.00
2018-05-15T01:32:07.884Z,4.00
2018-05-15T01:34:40.183Z,4.00
2018-05-15T01:35:40.359Z,4.00
2018-05-15T01:36:41.186Z,4.00
2018-05-15T01:37:40.732Z,4.00
2018-05-15T01:38:40.896Z,4.00
2018-05-15T01:39:41.058Z,4.00
2018-05-15T01:40:41.222Z,4.00
2018-05-15T01:41:41.386Z,4.00
2018-05-15T01:42:41.551Z,4.00
2018-05-15T01:43:41.723Z,4.00
2018-05-15T01:44:41.887Z,4.00
2018-05-15T01:45:42.053Z,4.00
2018-05-15T01:46:42.226Z,4.00
2018-05-15T01:47:42.385Z,4.00
2018-05-15T01:48:42.546Z,4.00
2018-05-15T01:51:24.825Z,4.00
2018-05-15T01:52:24.993Z,4.00
2018-05-15T01:53:25.146Z,4.00
2018-05-15T01:54:25.347Z,4.00
2018-05-15T01:55:25.469Z,4.00
2018-05-15T01:56:25.636Z,4.00
2018-05-15T01:57:26.367Z,4.00
2018-05-15T01:58:26.040Z,4.00
2018-05-15T01:59:26.208Z,4.00
2018-05-15T02:00:26.363Z,4.00
2018-05-15T02:01:26.564Z,4.00
2018-05-15T02:02:26.706Z,4.00
2018-05-15T02:03:26.874Z,4.00
2018-05-15T02:04:27.037Z,4.00
2018-05-15T02:05:27.201Z,4.00
2018-05-15T02:08:09.462Z,4.00
2018-05-15T02:09:09.618Z,4.00
2018-05-15T02:10:09.786Z,4.00
2018-05-15T02:11:09.943Z,4.00
2018-05-15T02:12:10.127Z,4.00
2018-05-15T02:13:11.006Z,4.00
2018-05-15T02:14:10.429Z,4.00
2018-05-15T02:15:10.587Z,4.00
2018-05-15T02:16:10.837Z,4.00
2018-05-15T02:17:10.909Z,4.00
2018-05-15T02:18:11.092Z,4.00
2018-05-15T02:19:11.257Z,4.00
2018-05-15T02:20:11.424Z,4.00
2018-05-15T02:21:11.593Z,4.00
2018-05-15T02:22:11.777Z,4.00
2018-05-15T02:24:44.041Z,4.00
2018-05-15T02:25:44.205Z,4.00
2018-05-15T02:26:44.371Z,4.00
2018-05-15T02:27:44.536Z,4.00
2018-05-15T02:28:44.707Z,4.00
2018-05-15T02:29:44.867Z,4.00
2018-05-15T02:30:45.033Z,4.00
2018-05-15T02:31:45.202Z,4.00
2018-05-15T02:32:45.374Z,4.00
2018-05-15T02:33:45.533Z,4.00
2018-05-15T02:34:45.701Z,4.00
2018-05-15T02:35:45.869Z,4.00
2018-05-15T02:36:46.069Z,4.00
2018-05-15T02:37:46.191Z,4.00
2018-05-15T02:38:46.353Z,4.00
2018-05-15T02:41:28.939Z,4.00
2018-05-15T02:42:29.107Z,4.00
2018-05-15T02:43:29.291Z,4.00
2018-05-15T02:44:29.454Z,4.00
2018-05-15T02:45:29.617Z,4.00
2018-05-15T02:46:29.788Z,4.00
2018-05-15T02:47:29.948Z,4.00
2018-05-15T02:48:30.190Z,4.00
2018-05-15T02:49:30.338Z,4.00
2018-05-15T02:50:30.507Z,4.00
2018-05-15T02:53:02.791Z,4.00
2018-05-15T02:54:02.993Z,4.00
2018-05-15T02:55:03.112Z,4.00
2018-05-15T02:56:03.309Z,4.00
2018-05-15T02:57:03.490Z,4.00
2018-05-15T02:58:04.305Z,4.00
2018-05-15T02:59:03.837Z,4.00
2018-05-15T03:00:04.001Z,4.00
2018-05-15T03:01:04.165Z,4.00
2018-05-15T03:02:04.333Z,0.00
2018-05-15T03:03:04.496Z,0.00
2018-05-15T03:04:04.665Z,4.00
2018-05-15T03:05:04.849Z,4.00
2018-05-15T03:06:05.020Z,4.00
2018-05-15T03:07:05.161Z,4.00
2018-05-15T03:09:55.027Z,4.00
2018-05-15T03:10:55.216Z,4.00
2018-05-15T03:11:55.382Z,8.00
2018-05-15T03:12:55.539Z,8.00
2018-05-15T03:13:55.702Z,4.00
2018-05-15T03:14:55.866Z,4.00
2018-05-15T03:16:03.494Z,4.00
2018-05-15T03:16:56.151Z,4.00
2018-05-15T03:17:56.318Z,4.00
2018-05-15T03:18:56.506Z,8.00
2018-05-15T03:19:56.665Z,8.00
2018-05-15T03:20:56.829Z,8.00
2018-05-15T03:21:57.024Z,8.00
2018-05-15T03:22:57.198Z,12.00
2018-05-15T03:23:57.361Z,12.00
2018-05-15T03:24:57.529Z,12.00
2018-05-15T03:25:58.427Z,12.00
2018-05-15T03:26:57.854Z,16.00
2018-05-15T03:27:58.022Z,16.00
2018-05-15T03:28:58.187Z,16.00
2018-05-15T03:29:58.352Z,20.00
2018-05-15T03:32:30.915Z,20.00
2018-05-15T03:33:31.090Z,24.00
2018-05-15T03:34:31.259Z,24.00
2018-05-15T03:35:31.424Z,24.00
2018-05-15T03:36:31.591Z,32.00
2018-05-15T03:37:31.753Z,32.00
2018-05-15T03:38:31.909Z,32.00
2018-05-15T03:39:32.068Z,36.00
2018-05-15T03:40:32.230Z,36.00
2018-05-15T03:41:32.406Z,36.00
2018-05-15T03:44:04.677Z,44.00
2018-05-15T03:45:04.853Z,44.00
2018-05-15T03:46:05.011Z,48.00
2018-05-15T03:47:05.176Z,52.00
2018-05-15T03:48:05.341Z,52.00
2018-05-15T03:49:05.508Z,56.00
2018-05-15T03:50:05.669Z,56.00
2018-05-15T03:51:05.827Z,64.00
2018-05-15T03:52:06.006Z,64.00
2018-05-15T03:53:06.169Z,68.00
2018-05-15T03:54:06.334Z,76.00
2018-05-15T03:55:06.510Z,76.00
2018-05-15T03:56:06.672Z,80.00
2018-05-15T03:57:06.837Z,88.00
2018-05-15T03:58:07.002Z,96.00
2018-05-15T04:01:57.872Z,128.00
2018-05-15T04:02:57.661Z,136.00
2018-05-15T04:03:57.828Z,140.00
2018-05-15T04:04:57.989Z,152.00
2018-05-15T04:05:58.149Z,156.00
2018-05-15T04:06:58.308Z,164.00
2018-05-15T04:07:58.474Z,168.00
2018-05-15T04:08:58.637Z,180.00
2018-05-15T04:09:58.805Z,188.00
2018-05-15T04:10:59.036Z,192.00
2018-05-15T04:11:59.145Z,204.00
2018-05-15T04:12:59.299Z,208.00
2018-05-15T04:13:59.464Z,212.00
2018-05-15T04:14:59.633Z,216.00
2018-05-15T04:15:59.821Z,224.00
2018-05-15T04:18:32.085Z,244.00
2018-05-15T04:19:32.243Z,244.00
2018-05-15T04:20:32.408Z,252.00
2018-05-15T04:21:32.574Z,256.00
2018-05-15T04:22:32.740Z,276.00
2018-05-15T04:23:32.906Z,264.00
2018-05-15T04:24:33.066Z,268.00
2018-05-15T04:25:33.240Z,272.00
2018-05-15T04:26:33.417Z,280.00
2018-05-15T04:27:33.565Z,280.00
2018-05-15T04:28:33.725Z,288.00
2018-05-15T04:29:33.888Z,292.00
2018-05-15T04:30:34.057Z,292.00
2018-05-15T04:31:34.268Z,292.00
2018-05-15T04:32:34.378Z,304.00
2018-05-15T04:36:45.300Z,332.00
2018-05-15T04:37:45.108Z,348.00
2018-05-15T04:38:45.259Z,340.00
2018-05-15T04:39:45.429Z,352.00
2018-05-15T04:40:45.596Z,360.00
2018-05-15T04:41:45.773Z,372.00
2018-05-15T04:42:45.940Z,380.00
2018-05-15T04:43:46.302Z,404.00
2018-05-15T04:44:53.443Z,424.00
2018-05-15T04:45:46.480Z,432.00
2018-05-15T04:46:46.638Z,448.00
2018-05-15T04:47:46.816Z,444.00
2018-05-15T04:48:46.987Z,460.00
2018-05-15T04:49:47.153Z,464.00
2018-05-15T04:50:47.314Z,460.00
2018-05-15T04:51:47.468Z,476.00
2018-05-15T04:52:47.641Z,460.00
2018-05-15T04:53:47.804Z,492.00
2018-05-15T04:54:47.974Z,460.00
2018-05-15T04:55:48.172Z,480.00
2018-05-15T04:56:48.322Z,488.00
2018-05-15T04:57:48.496Z,496.00
2018-05-15T04:58:48.891Z,516.00
2018-05-15T05:01:21.117Z,524.00
2018-05-15T05:02:21.161Z,548.00
2018-05-15T05:03:21.361Z,560.00
2018-05-15T05:04:21.557Z,576.00
2018-05-15T05:05:29.630Z,600.00
2018-05-15T05:06:21.922Z,604.00
2018-05-15T05:07:22.497Z,616.00
2018-05-15T05:08:22.147Z,652.00
2018-05-15T05:09:22.317Z,652.00
2018-05-15T05:10:22.476Z,672.00
2018-05-15T05:11:22.640Z,692.00
2018-05-15T05:12:22.812Z,768.00
2018-05-15T05:13:22.989Z,796.00
2018-05-15T05:14:23.138Z,816.00
2018-05-15T05:15:24.576Z,804.00
2018-05-15T05:16:23.542Z,872.00
2018-05-15T05:17:23.742Z,880.00
2018-05-15T05:18:33.364Z,924.00
2018-05-15T05:19:24.131Z,936.00
2018-05-15T05:20:24.302Z,1016.00
2018-05-15T05:21:24.439Z,1056.00
2018-05-15T05:22:24.725Z,1040.00
2018-05-15T05:23:24.859Z,1140.00
2018-05-15T05:26:07.473Z,1252.00
2018-05-15T05:27:15.143Z,1192.00
2018-05-15T05:28:07.741Z,1220.00
2018-05-15T05:29:07.929Z,1328.00
2018-05-15T05:30:08.096Z,1356.00
2018-05-15T05:31:08.260Z,1332.00
2018-05-15T05:32:08.425Z,1368.00
2018-05-15T05:33:08.592Z,1356.00
2018-05-15T05:34:08.759Z,1404.00
2018-05-15T05:35:08.924Z,1440.00
2018-05-15T05:36:09.089Z,1480.00
2018-05-15T05:37:10.181Z,1368.00
2018-05-15T05:39:51.568Z,1368.00
2018-05-15T05:40:51.746Z,1376.00
2018-05-15T05:41:51.909Z,1364.00
2018-05-15T05:42:52.073Z,1412.00
2018-05-15T05:43:52.242Z,1420.00
2018-05-15T05:44:52.406Z,1484.00
2018-05-15T05:45:52.571Z,1388.00
2018-05-15T05:46:53.774Z,1340.00
2018-05-15T05:47:52.955Z,1288.00
2018-05-15T05:48:53.108Z,1388.00
2018-05-15T05:50:01.228Z,1356.00
2018-05-15T05:50:53.387Z,1520.00
2018-05-15T05:53:25.427Z,1444.00
2018-05-15T05:54:25.603Z,1520.00
2018-05-15T05:55:25.765Z,1552.00
2018-05-15T05:56:25.931Z,1508.00
2018-05-15T05:57:26.090Z,1600.00
2018-05-15T05:58:26.255Z,1660.00
2018-05-15T05:59:26.424Z,1792.00
2018-05-15T06:00:26.597Z,1780.00
2018-05-15T06:01:26.753Z,2272.00
2018-05-15T06:02:26.919Z,1972.00
2018-05-15T06:03:27.086Z,2856.00
2018-05-15T06:04:27.251Z,2328.00
2018-05-15T06:05:29.193Z,2248.00
2018-05-15T06:06:27.598Z,4996.00
2018-05-15T06:07:27.825Z,4440.00
2018-05-15T06:10:10.331Z,2416.00
2018-05-15T06:11:10.498Z,2708.00
2018-05-15T06:12:10.690Z,3112.00
2018-05-15T06:13:10.855Z,2680.00
2018-05-15T06:14:11.023Z,2164.00
2018-05-15T06:15:11.190Z,2052.00
2018-05-15T06:16:11.369Z,1780.00
2018-05-15T06:17:11.525Z,1644.00
2018-05-15T06:18:11.712Z,1668.00
2018-05-15T06:19:11.862Z,1704.00
2018-05-15T06:20:12.031Z,1700.00
2018-05-15T06:21:12.216Z,1532.00
2018-05-15T06:22:12.383Z,1584.00
2018-05-15T06:23:12.549Z,1760.00
2018-05-15T06:24:12.717Z,1540.00
2018-05-15T06:26:54.986Z,1784.00
2018-05-15T06:27:55.172Z,1716.00
2018-05-15T06:28:55.373Z,1568.00
2018-05-15T06:29:55.533Z,1348.00
2018-05-15T06:30:55.714Z,1324.00
2018-05-15T06:31:55.879Z,1316.00
2018-05-15T06:32:56.043Z,1360.00
2018-05-15T06:33:56.218Z,1344.00
2018-05-15T06:34:56.381Z,1368.00
2018-05-15T06:35:56.553Z,1400.00
2018-05-15T06:36:56.738Z,1500.00
2018-05-15T06:37:56.904Z,1548.00
2018-05-15T06:38:57.067Z,1532.00
2018-05-15T06:39:57.248Z,1608.00
2018-05-15T06:40:57.402Z,1652.00
2018-05-15T06:43:53.579Z,1904.00
2018-05-15T06:44:53.753Z,1800.00
2018-05-15T06:45:53.929Z,2052.00
2018-05-15T06:46:54.092Z,2056.00
2018-05-15T06:47:54.272Z,2108.00
2018-05-15T06:48:54.445Z,2216.00
2018-05-15T06:49:54.613Z,2904.00
2018-05-15T06:50:54.774Z,2836.00
2018-05-15T06:51:54.997Z,3660.00
2018-05-15T06:52:55.085Z,3916.00
2018-05-15T06:54:03.212Z,3736.00
2018-05-15T06:54:55.374Z,4208.00
2018-05-15T06:55:55.539Z,4104.00
2018-05-15T06:56:55.704Z,4084.00
2018-05-15T06:57:55.868Z,3800.00
2018-05-15T06:58:56.035Z,3268.00
2018-05-15T06:59:56.234Z,3880.00
2018-05-15T07:00:56.401Z,3892.00
2018-05-15T07:01:56.570Z,7500.00
2018-05-15T07:02:56.740Z,13676.00
2018-05-15T07:03:56.917Z,4928.00
2018-05-15T07:06:30.186Z,3864.00
2018-05-15T07:07:30.353Z,3876.00
2018-05-15T07:08:30.523Z,3856.00
2018-05-15T07:09:32.211Z,3864.00
2018-05-15T07:10:30.919Z,3968.00
2018-05-15T07:11:31.093Z,3864.00
2018-05-15T07:12:31.259Z,3548.00
2018-05-15T07:13:31.440Z,3744.00
2018-05-15T07:14:31.618Z,3880.00
2018-05-15T07:15:39.796Z,3720.00
2018-05-15T07:16:32.107Z,8832.00
2018-05-15T07:17:32.206Z,3752.00
2018-05-15T07:18:32.237Z,4012.00
2018-05-15T07:19:39.967Z,3620.00
2018-05-15T07:20:32.511Z,3360.00
2018-05-15T07:21:32.682Z,3736.00
2018-05-15T07:22:32.851Z,3748.00
2018-05-15T07:23:33.026Z,3676.00
2018-05-15T07:24:33.291Z,3516.00
2018-05-15T07:25:33.340Z,3556.00
2018-05-15T07:26:33.556Z,3840.00
2018-05-15T07:27:34.252Z,3900.00
2018-05-15T07:28:35.747Z,3464.00
2018-05-15T07:29:34.669Z,3564.00
2018-05-15T07:30:34.215Z,3656.00
2018-05-15T07:31:34.375Z,4656.00
2018-05-15T07:32:34.548Z,4140.00
2018-05-15T07:33:34.711Z,3796.00
2018-05-15T07:36:07.365Z,3476.00
2018-05-15T07:37:07.539Z,3912.00
2018-05-15T07:38:07.736Z,3928.00
2018-05-15T07:39:07.902Z,4348.00
2018-05-15T07:40:08.084Z,3952.00
2018-05-15T07:41:08.243Z,3696.00
2018-05-15T07:42:08.406Z,4212.00
2018-05-15T07:43:08.569Z,4100.00
2018-05-15T07:44:08.750Z,3844.00
2018-05-15T07:45:08.901Z,3784.00
2018-05-15T07:46:09.059Z,3580.00
2018-05-15T07:47:09.232Z,3864.00
2018-05-15T07:48:09.440Z,3344.00
2018-05-15T07:49:09.618Z,3256.00
2018-05-15T07:50:09.785Z,3412.00
2018-05-15T07:52:42.107Z,3124.00
2018-05-15T07:53:44.129Z,3092.00
2018-05-15T07:54:42.554Z,3004.00
2018-05-15T07:55:42.625Z,3152.00
2018-05-15T07:56:42.804Z,3312.00
2018-05-15T07:57:42.981Z,3724.00
2018-05-15T07:58:43.170Z,3276.00
2018-05-15T07:59:43.336Z,3460.00
2018-05-15T08:00:43.510Z,3524.00
2018-05-15T08:01:43.679Z,3352.00
2018-05-15T08:04:26.327Z,1848.00
2018-05-15T08:05:26.440Z,1840.00
2018-05-15T08:06:26.615Z,2228.00
2018-05-15T08:07:27.530Z,2764.00
2018-05-15T08:08:26.953Z,3300.00
2018-05-15T08:09:27.127Z,3732.00
2018-05-15T08:10:27.992Z,3880.00
2018-05-15T08:11:27.404Z,3424.00
2018-05-15T08:12:27.572Z,3068.00
2018-05-15T08:13:27.738Z,3028.00
2018-05-15T08:14:27.909Z,2724.00
2018-05-15T08:15:28.073Z,2348.00
2018-05-15T08:16:28.247Z,2512.00
2018-05-15T08:17:28.411Z,1868.00
2018-05-15T08:18:28.587Z,2980.00
2018-05-15T08:21:10.926Z,3244.00
2018-05-15T08:22:11.131Z,3232.00
2018-05-15T08:23:19.285Z,3716.00
2018-05-15T08:24:11.419Z,3388.00
2018-05-15T08:25:11.617Z,3660.00
2018-05-15T08:26:11.769Z,3508.00
2018-05-15T08:27:19.701Z,3416.00
2018-05-15T08:28:12.113Z,3292.00
2018-05-15T08:29:12.198Z,3444.00
2018-05-15T08:30:12.371Z,3332.00
2018-05-15T08:31:12.552Z,3480.00
2018-05-15T08:32:12.732Z,3212.00
2018-05-15T08:33:12.897Z,3308.00
2018-05-15T08:34:13.087Z,3300.00
2018-05-15T08:35:13.244Z,3764.00
2018-05-15T08:36:13.405Z,3836.00
2018-05-15T08:37:13.574Z,3732.00
2018-05-15T08:39:46.446Z,4032.00
2018-05-15T08:40:46.609Z,4980.00
2018-05-15T08:41:46.850Z,4116.00
2018-05-15T08:42:46.916Z,4028.00
2018-05-15T08:43:47.109Z,3892.00
2018-05-15T08:44:47.297Z,4112.00
2018-05-15T08:45:47.464Z,3668.00
2018-05-15T08:46:47.652Z,3872.00
2018-05-15T08:47:47.834Z,3536.00
2018-05-15T08:48:48.035Z,3364.00
2018-05-15T08:49:48.221Z,3528.00
2018-05-15T08:50:48.395Z,3428.00
2018-05-15T08:51:48.619Z,3752.00
2018-05-15T08:52:48.865Z,3360.00
2018-05-15T08:53:48.905Z,3460.00
2018-05-15T08:54:57.050Z,3464.00
2018-05-15T08:55:49.237Z,3684.00
2018-05-15T08:56:49.403Z,3608.00
2018-05-15T08:57:49.566Z,3384.00
2018-05-15T08:58:49.738Z,3528.00
2018-05-15T08:59:49.901Z,3240.00
2018-05-15T09:00:50.112Z,3200.00
2018-05-15T09:01:50.254Z,3456.00
2018-05-15T09:02:50.435Z,3396.00
2018-05-15T09:03:50.600Z,3328.00
2018-05-15T09:04:50.769Z,3220.00
2018-05-15T09:05:50.940Z,3256.00
2018-05-15T09:06:51.130Z,3440.00
2018-05-15T09:07:51.270Z,3424.00
2018-05-15T09:08:51.431Z,3332.00
2018-05-15T09:11:41.299Z,3224.00
2018-05-15T09:12:33.831Z,3112.00
2018-05-15T09:13:34.045Z,2900.00
2018-05-15T09:14:34.147Z,2948.00
2018-05-15T09:15:34.311Z,3292.00
2018-05-15T09:16:34.475Z,3240.00
2018-05-15T09:17:34.647Z,3236.00
2018-05-15T09:18:34.814Z,3652.00
2018-05-15T09:19:43.006Z,3548.00
2018-05-15T09:20:35.238Z,3460.00
2018-05-15T09:21:35.392Z,3628.00
2018-05-15T09:22:35.559Z,1660.00
2018-05-15T09:23:35.746Z,3460.00
2018-05-15T09:24:35.914Z,3848.00
2018-05-15T09:25:36.150Z,3844.00
2018-05-15T09:26:36.247Z,3264.00
2018-05-15T09:27:36.428Z,3320.00
2018-05-15T09:28:36.612Z,3276.00
2018-05-15T09:29:36.802Z,3748.00
2018-05-15T09:32:10.478Z,3324.00
2018-05-15T09:33:10.610Z,2220.00
2018-05-15T09:34:10.788Z,2152.00
2018-05-15T09:35:10.945Z,2056.00
2018-05-15T09:37:43.116Z,3284.00
2018-05-15T09:38:43.295Z,3240.00
2018-05-15T09:39:43.460Z,3316.00
2018-05-15T09:40:43.670Z,3600.00
2018-05-15T09:41:43.819Z,3368.00
2018-05-15T09:42:43.982Z,2124.00
2018-05-15T09:43:44.152Z,2296.00
2018-05-15T09:44:44.331Z,2264.00
2018-05-15T09:45:44.498Z,2216.00
2018-05-15T09:46:52.257Z,2380.00
2018-05-15T09:47:45.825Z,1936.00
2018-05-15T09:48:45.989Z,2124.00
2018-05-15T09:49:45.204Z,2108.00
2018-05-15T09:50:45.553Z,2376.00
2018-05-15T09:51:45.572Z,3208.00
2018-05-15T09:52:45.820Z,3356.00
2018-05-15T09:53:45.961Z,3392.00
2018-05-15T09:54:53.911Z,3592.00
2018-05-15T09:55:46.293Z,2692.00
2018-05-15T09:56:46.464Z,2312.00
2018-05-15T09:57:46.693Z,2548.00
2018-05-15T09:58:46.948Z,3120.00
2018-05-15T09:59:46.979Z,2996.00
2018-05-15T10:00:47.175Z,3104.00
2018-05-15T10:01:47.382Z,2908.00
2018-05-15T10:02:55.332Z,2876.00
2018-05-15T10:03:47.749Z,2444.00
2018-05-15T10:04:48.858Z,2624.00
2018-05-15T10:05:48.080Z,2352.00
2018-05-15T10:06:48.240Z,2560.00
2018-05-15T10:07:48.478Z,3860.00
2018-05-15T10:08:49.375Z,3852.00
2018-05-15T10:09:48.791Z,4176.00
2018-05-15T10:10:48.962Z,3764.00
2018-05-15T10:11:49.129Z,3052.00
2018-05-15T10:12:49.295Z,2076.00
2018-05-15T10:13:49.454Z,2328.00
2018-05-15T10:14:49.621Z,2196.00
2018-05-15T10:15:49.791Z,1916.00
2018-05-15T10:16:49.983Z,1880.00
2018-05-15T10:17:58.206Z,1832.00
2018-05-15T10:18:50.292Z,1776.00
2018-05-15T10:19:50.483Z,1840.00
2018-05-15T10:20:50.742Z,1744.00
2018-05-15T10:21:51.036Z,1872.00
2018-05-15T10:22:51.033Z,1848.00
2018-05-15T10:23:51.203Z,1648.00
2018-05-15T10:24:58.567Z,1572.00
2018-05-15T10:25:51.485Z,1736.00
2018-05-15T10:26:51.660Z,1824.00
2018-05-15T10:27:51.916Z,1952.00
2018-05-15T10:28:52.052Z,1900.00
2018-05-15T10:29:52.263Z,1900.00
2018-05-15T10:30:52.446Z,2012.00
2018-05-15T10:31:52.510Z,3388.00
2018-05-15T10:32:52.664Z,3352.00
2018-05-15T10:33:52.848Z,3508.00
2018-05-15T10:34:53.003Z,2880.00
2018-05-15T10:35:53.169Z,1868.00
2018-05-15T10:36:53.912Z,1608.00
2018-05-15T10:37:53.447Z,1584.00
2018-05-15T10:38:53.603Z,1692.00
2018-05-15T10:40:01.850Z,2172.00
2018-05-15T10:40:54.257Z,2524.00
2018-05-15T10:41:54.164Z,1472.00
2018-05-15T10:42:56.032Z,1452.00
2018-05-15T10:43:54.465Z,1704.00
2018-05-15T10:44:54.612Z,1736.00
2018-05-15T10:45:54.766Z,1672.00
2018-05-15T10:48:26.593Z,1880.00
2018-05-15T10:49:26.653Z,2024.00
2018-05-15T10:50:26.876Z,2100.00
2018-05-15T10:51:27.047Z,1672.00
2018-05-15T10:52:27.214Z,2524.00
2018-05-15T10:53:27.407Z,2852.00
2018-05-15T10:54:27.614Z,2800.00
2018-05-15T10:55:27.767Z,2524.00
2018-05-15T10:56:27.957Z,3232.00
2018-05-15T10:57:28.144Z,3368.00
2018-05-15T10:58:28.380Z,2072.00
2018-05-15T10:59:28.804Z,3328.00
2018-05-15T11:00:36.404Z,2680.00
2018-05-15T11:01:28.839Z,3212.00
2018-05-15T11:02:29.033Z,3264.00
2018-05-15T11:03:29.202Z,3412.00
2018-05-15T11:04:29.370Z,1852.00
2018-05-15T11:05:29.551Z,1888.00
2018-05-15T11:06:30.617Z,3220.00
2018-05-15T11:07:29.892Z,1848.00
2018-05-15T11:08:30.067Z,1632.00
2018-05-15T11:09:32.096Z,1536.00
2018-05-15T11:10:32.105Z,1372.00
2018-05-15T11:11:30.714Z,1288.00
2018-05-15T11:12:32.711Z,1308.00
2018-05-15T11:13:30.992Z,1024.00
2018-05-15T11:14:39.046Z,960.00
2018-05-15T11:15:31.228Z,936.00
2018-05-15T11:16:31.415Z,976.00
2018-05-15T11:17:31.604Z,848.00
2018-05-15T11:18:32.737Z,836.00
2018-05-15T11:19:31.981Z,812.00
2018-05-15T11:20:32.145Z,724.00
2018-05-15T11:21:32.322Z,716.00
2018-05-15T11:22:32.500Z,724.00
2018-05-15T11:23:40.634Z,648.00
2018-05-15T11:24:32.885Z,660.00
2018-05-15T11:25:33.042Z,652.00
2018-05-15T11:26:35.174Z,672.00
2018-05-15T11:27:36.175Z,620.00
2018-05-15T11:28:33.484Z,608.00
2018-05-15T11:29:33.646Z,608.00
2018-05-15T11:30:41.298Z,596.00
2018-05-15T11:31:33.972Z,560.00
2018-05-15T11:32:34.154Z,532.00
2018-05-15T11:33:34.337Z,516.00
2018-05-15T11:34:34.495Z,532.00
2018-05-15T11:35:34.754Z,496.00
2018-05-15T11:36:34.836Z,476.00
2018-05-15T11:37:35.020Z,464.00
2018-05-15T11:38:35.211Z,460.00
2018-05-15T11:39:35.465Z,472.00
2018-05-15T11:40:35.630Z,488.00
2018-05-15T11:41:35.897Z,516.00
2018-05-15T11:42:35.902Z,560.00
2018-05-15T11:43:36.085Z,588.00
2018-05-15T11:44:36.266Z,600.00
2018-05-15T11:45:44.395Z,612.00
2018-05-15T11:46:36.590Z,620.00
2018-05-15T11:47:37.019Z,660.00
2018-05-15T11:48:37.211Z,692.00
2018-05-15T11:49:37.838Z,724.00
2018-05-15T11:50:37.908Z,796.00
2018-05-15T11:51:38.742Z,872.00
2018-05-15T11:52:38.244Z,956.00
2018-05-15T11:53:37.807Z,1064.00
2018-05-15T11:54:37.973Z,1136.00
2018-05-15T11:55:42.713Z,1208.00
2018-05-15T11:56:46.068Z,1320.00
2018-05-15T11:57:38.507Z,2184.00
2018-05-15T11:58:38.687Z,2408.00
2018-05-15T11:59:38.881Z,2664.00
2018-05-15T12:00:39.054Z,2744.00
2018-05-15T12:01:39.224Z,2708.00
2018-05-15T12:02:39.450Z,1968.00
2018-05-15T12:03:39.588Z,1624.00
2018-05-15T12:04:39.775Z,1488.00
2018-05-15T12:05:39.961Z,1540.00
2018-05-15T12:06:40.361Z,1708.00
2018-05-15T12:07:40.319Z,1616.00
2018-05-15T12:08:40.439Z,1552.00
2018-05-15T12:09:48.631Z,1572.00
2018-05-15T12:10:40.866Z,2412.00
2018-05-15T12:11:41.248Z,1548.00
2018-05-15T12:12:41.265Z,1284.00
2018-05-15T12:13:49.365Z,1212.00
2018-05-15T12:14:41.774Z,1160.00
2018-05-15T12:15:41.768Z,1108.00
2018-05-15T12:16:41.936Z,1072.00
2018-05-15T12:17:42.103Z,1044.00
2018-05-15T12:18:50.343Z,2120.00
2018-05-15T12:19:42.381Z,1640.00
2018-05-15T12:20:42.547Z,1904.00
2018-05-15T12:21:43.622Z,852.00
2018-05-15T12:22:42.925Z,860.00
2018-05-15T12:23:51.093Z,904.00
2018-05-15T12:24:43.252Z,960.00
2018-05-15T12:25:43.487Z,972.00
2018-05-15T12:26:43.825Z,1000.00
2018-05-15T12:27:43.793Z,1016.00
2018-05-15T12:28:44.073Z,972.00
2018-05-15T12:29:52.120Z,1000.00
2018-05-15T12:30:44.269Z,1000.00
2018-05-15T12:31:44.968Z,1024.00
2018-05-15T12:32:45.058Z,1064.00
2018-05-15T12:33:44.868Z,1144.00
2018-05-15T12:34:45.037Z,1184.00
2018-05-15T12:35:45.276Z,1296.00
2018-05-15T12:36:45.407Z,1444.00
2018-05-15T12:37:45.608Z,1676.00
2018-05-15T12:38:45.776Z,1632.00
2018-05-15T12:39:46.899Z,1768.00
2018-05-15T12:40:54.136Z,1776.00
2018-05-15T12:41:46.522Z,2040.00
2018-05-15T12:42:46.563Z,2584.00
2018-05-15T12:43:46.780Z,3180.00
2018-05-15T12:44:46.932Z,3092.00
2018-05-15T12:45:47.121Z,3060.00
2018-05-15T12:46:47.327Z,2852.00
2018-05-15T12:47:47.506Z,2064.00
2018-05-15T12:48:47.904Z,1396.00
2018-05-15T12:49:55.570Z,1368.00
2018-05-15T12:50:48.014Z,1308.00
2018-05-15T12:51:48.245Z,1304.00
2018-05-15T12:52:48.347Z,1376.00
2018-05-15T12:53:48.520Z,1236.00
2018-05-15T12:54:48.783Z,1232.00
2018-05-15T12:55:48.931Z,1204.00
2018-05-15T12:56:49.096Z,1128.00
2018-05-15T12:57:49.280Z,1028.00
2018-05-15T12:58:57.510Z,956.00
2018-05-15T12:59:49.701Z,888.00
2018-05-15T13:00:49.858Z,816.00
2018-05-15T13:01:50.029Z,756.00
2018-05-15T13:04:22.309Z,680.00
2018-05-15T13:05:22.493Z,660.00
2018-05-15T13:06:23.336Z,648.00
2018-05-15T13:07:22.885Z,644.00
2018-05-15T13:08:23.065Z,632.00
2018-05-15T13:09:23.840Z,648.00
2018-05-15T13:10:30.560Z,656.00
2018-05-15T13:11:23.670Z,680.00
2018-05-15T13:12:23.795Z,684.00
2018-05-15T13:13:23.961Z,692.00
2018-05-15T13:14:24.152Z,716.00
2018-05-15T13:15:24.344Z,740.00
2018-05-15T13:16:24.573Z,800.00
2018-05-15T13:17:24.652Z,852.00
2018-05-15T13:18:25.002Z,900.00
2018-05-15T13:19:25.101Z,956.00
2018-05-15T13:20:33.634Z,984.00
2018-05-15T13:21:26.869Z,1052.00
2018-05-15T13:22:25.432Z,1132.00
2018-05-15T13:23:25.601Z,1192.00
2018-05-15T13:24:25.925Z,1272.00
2018-05-15T13:25:25.982Z,1292.00
2018-05-15T13:26:26.311Z,1580.00
2018-05-15T13:27:26.375Z,1984.00
2018-05-15T13:28:26.879Z,1888.00
2018-05-15T13:29:26.694Z,1768.00
2018-05-15T13:30:26.873Z,2000.00